createdAt,value
2019-05-01T00:04:41.163Z,39.73
2019-05-01T00:10:37.555Z,36.42
2019-05-01T00:13:24.407Z,38.28
2019-05-01T00:16:11.321Z,38.88
2019-05-01T00:18:58.108Z,38.42
2019-05-01T00:21:52.045Z,37.50
2019-05-01T00:24:38.527Z,36.08
2019-05-01T00:27:24.999Z,35.90
2019-05-01T00:30:12.587Z,35.75
2019-05-01T00:32:59.972Z,39.17
2019-05-01T00:35:47.574Z,39.78
2019-05-01T00:38:38.293Z,37.40
2019-05-01T00:41:25.545Z,40.28
2019-05-01T00:44:12.423Z,38.10
2019-05-01T00:46:59.609Z,40.92
2019-05-01T00:49:46.158Z,41.42
2019-05-01T00:52:32.774Z,38.92
2019-05-01T00:58:55.306Z,37.22
2019-05-01T01:02:00.592Z,40.60
2019-05-01T01:04:47.558Z,41.45
2019-05-01T01:07:48.352Z,38.75
2019-05-01T01:10:34.899Z,40.45
2019-05-01T01:13:21.375Z,43.58
2019-05-01T01:16:08.200Z,41.80
2019-05-01T01:19:09.545Z,41.20
2019-05-01T01:21:56.330Z,41.28
2019-05-01T01:24:50.313Z,41.65
2019-05-01T01:27:37.819Z,40.35
2019-05-01T01:30:24.720Z,38.63
2019-05-01T01:33:11.404Z,35.55
2019-05-01T01:35:58.668Z,37.35
2019-05-01T01:38:45.248Z,37.88
2019-05-01T01:41:32.059Z,41.17
2019-05-01T01:44:36.798Z,35.70
2019-05-01T01:47:23.585Z,33.10
2019-05-01T01:50:12.780Z,33.13
2019-05-01T01:52:59.452Z,32.65
2019-05-01T01:55:46.135Z,33.28
2019-05-01T01:58:32.594Z,30.50
2019-05-01T02:01:31.854Z,34.50
2019-05-01T02:04:18.716Z,30.37
2019-05-01T02:07:05.622Z,30.35
2019-05-01T02:09:52.312Z,30.02
2019-05-01T02:12:39.122Z,29.90
2019-05-01T02:18:31.457Z,31.52
2019-05-01T02:21:18.874Z,28.23
2019-05-01T02:24:05.897Z,27.40
2019-05-01T02:26:52.419Z,30.58
2019-05-01T02:29:44.843Z,27.95
2019-05-01T02:32:31.853Z,28.75
2019-05-01T02:35:18.557Z,27.25
2019-05-01T02:38:04.959Z,24.40
2019-05-01T02:40:54.204Z,27.10
2019-05-01T02:43:47.818Z,28.40
2019-05-01T02:46:35.106Z,25.23
2019-05-01T02:49:34.385Z,28.35
2019-05-01T02:52:20.905Z,29.10
2019-05-01T02:55:07.605Z,31.10
2019-05-01T02:57:54.854Z,32.35
2019-05-01T03:00:41.747Z,30.73
2019-05-01T03:03:28.861Z,31.27
2019-05-01T03:06:29.761Z,32.55
2019-05-01T03:09:16.904Z,32.40
2019-05-01T03:12:03.811Z,35.63
2019-05-01T03:14:52.341Z,29.85
2019-05-01T03:17:48.889Z,31.00
2019-05-01T03:20:38.770Z,35.00
2019-05-01T03:23:25.304Z,35.70
2019-05-01T03:26:12.497Z,35.60
2019-05-01T03:28:59.094Z,39.13
2019-05-01T03:32:13.002Z,33.03
2019-05-01T03:34:32.829Z,35.45
2019-05-01T03:37:19.954Z,35.58
2019-05-01T03:40:07.042Z,40.38
2019-05-01T03:42:53.656Z,35.97
2019-05-01T03:45:40.471Z,40.88
2019-05-01T03:48:27.675Z,37.17
2019-05-01T03:51:14.871Z,37.53
2019-05-01T03:54:01.752Z,36.93
2019-05-01T03:56:48.792Z,37.53
2019-05-01T03:59:35.824Z,38.13
2019-05-01T04:02:37.385Z,37.78
2019-05-01T04:05:24.131Z,39.15
2019-05-01T04:08:17.617Z,38.05
2019-05-01T04:11:07.012Z,34.15
2019-05-01T04:13:53.821Z,35.85
2019-05-01T04:16:40.325Z,40.83
2019-05-01T04:19:34.723Z,41.83
2019-05-01T04:22:21.816Z,39.23
2019-05-01T04:25:08.523Z,39.70
2019-05-01T04:27:58.525Z,37.55
2019-05-01T04:30:42.092Z,37.45
2019-05-01T04:33:29.282Z,38.47
2019-05-01T04:36:29.062Z,39.60
2019-05-01T04:39:15.764Z,38.70
2019-05-01T04:42:09.222Z,43.42
2019-05-01T04:44:55.851Z,39.35
2019-05-01T04:47:49.713Z,39.83
2019-05-01T04:50:36.310Z,38.20
2019-05-01T04:53:23.824Z,39.72
2019-05-01T04:56:10.327Z,39.47
2019-05-01T04:58:57.246Z,36.67
2019-05-01T05:02:02.096Z,39.72
2019-05-01T05:04:49.694Z,43.03
2019-05-01T05:07:37.303Z,38.80
2019-05-01T05:10:23.880Z,37.17
2019-05-01T05:13:19.230Z,41.83
2019-05-01T05:16:11.822Z,38.75
2019-05-01T05:18:59.045Z,37.50
2019-05-01T05:21:46.082Z,39.75
2019-05-01T05:24:33.015Z,39.72
2019-05-01T05:27:19.545Z,39.42
2019-05-01T05:30:06.340Z,44.03
2019-05-01T05:32:53.138Z,39.78
2019-05-01T05:35:40.103Z,42.70
2019-05-01T05:38:33.050Z,41.63
2019-05-01T05:41:20.039Z,39.58
2019-05-01T05:44:06.813Z,40.08
2019-05-01T05:46:53.701Z,38.70
2019-05-01T05:49:40.662Z,42.20
2019-05-01T05:52:32.688Z,41.63
2019-05-01T05:55:22.433Z,43.35
2019-05-01T05:58:09.342Z,41.85
2019-05-01T06:01:13.062Z,39.97
2019-05-01T06:04:03.638Z,42.72
2019-05-01T06:06:56.778Z,42.00
2019-05-01T06:09:44.775Z,44.85
2019-05-01T06:12:37.254Z,41.70
2019-05-01T06:15:25.836Z,42.28
2019-05-01T06:18:12.907Z,44.90
2019-05-01T06:21:02.211Z,44.45
2019-05-01T06:23:52.704Z,43.22
2019-05-01T06:26:39.147Z,44.40
2019-05-01T06:29:22.873Z,47.15
2019-05-01T06:32:09.518Z,47.00
2019-05-01T06:34:58.525Z,43.70
2019-05-01T06:38:00.863Z,43.63
2019-05-01T06:40:46.222Z,45.95
2019-05-01T06:43:43.668Z,48.87
2019-05-01T06:46:32.190Z,45.85
2019-05-01T06:49:33.911Z,45.65
2019-05-01T06:52:20.590Z,49.78
2019-05-01T06:55:07.778Z,45.78
2019-05-01T06:58:01.544Z,45.95
2019-05-01T07:00:48.276Z,48.50
2019-05-01T07:03:35.037Z,53.58
2019-05-01T07:06:35.899Z,51.30
2019-05-01T07:09:28.202Z,51.55
2019-05-01T07:12:09.123Z,50.30
2019-05-01T07:14:55.736Z,50.22
2019-05-01T07:17:43.818Z,53.22
2019-05-01T07:20:39.740Z,54.38
2019-05-01T07:23:26.446Z,50.58
2019-05-01T07:26:13.697Z,58.50
2019-05-01T07:29:09.966Z,58.67
2019-05-01T07:31:55.474Z,55.70
2019-05-01T07:34:42.815Z,56.35
2019-05-01T07:37:29.661Z,59.38
2019-05-01T07:40:16.242Z,60.63
2019-05-01T07:43:11.577Z,65.25
2019-05-01T07:46:02.363Z,65.85
2019-05-01T07:48:48.064Z,67.20
2019-05-01T07:51:37.679Z,64.25
2019-05-01T07:54:21.541Z,72.32
2019-05-01T07:57:08.359Z,68.15
2019-05-01T07:59:58.140Z,65.43
2019-05-01T08:02:44.447Z,69.20
2019-05-01T08:05:30.852Z,69.05
2019-05-01T08:08:19.691Z,66.10
2019-05-01T08:11:10.141Z,68.60
2019-05-01T08:13:53.738Z,65.35
2019-05-01T08:16:42.563Z,65.65
2019-05-01T08:19:34.788Z,70.97
2019-05-01T08:22:17.326Z,68.00
2019-05-01T08:25:04.100Z,69.70
2019-05-01T08:27:56.488Z,68.05
2019-05-01T08:30:54.076Z,67.68
2019-05-01T08:33:49.829Z,67.18
2019-05-01T08:36:33.697Z,69.40
2019-05-01T08:39:20.677Z,67.85
2019-05-01T08:42:22.074Z,67.37
2019-05-01T08:45:08.621Z,68.85
2019-05-01T08:48:01.509Z,63.67
2019-05-01T08:50:47.971Z,64.40
2019-05-01T08:53:35.290Z,61.85
2019-05-01T08:56:23.481Z,64.35
2019-05-01T08:59:09.522Z,67.32
2019-05-01T09:02:10.438Z,69.20
2019-05-01T09:05:02.385Z,61.40
2019-05-01T09:10:54.533Z,59.08
2019-05-01T09:13:36.825Z,54.53
2019-05-01T09:16:28.298Z,55.60
2019-05-01T09:19:11.195Z,56.67
2019-05-01T09:21:58.053Z,53.38
2019-05-01T09:24:52.048Z,52.85
2019-05-01T09:27:42.004Z,49.22
2019-05-01T09:30:34.413Z,53.80
2019-05-01T09:33:21.076Z,55.17
2019-05-01T09:36:07.893Z,48.53
2019-05-01T09:38:54.577Z,46.60
2019-05-01T09:41:43.192Z,49.25
2019-05-01T09:44:29.131Z,50.10
2019-05-01T09:47:15.919Z,44.97
2019-05-01T09:50:02.543Z,50.33
2019-05-01T09:52:55.182Z,45.63
2019-05-01T09:55:50.196Z,37.85
2019-05-01T09:58:36.858Z,35.65
2019-05-01T10:01:31.561Z,36.88
2019-05-01T10:04:10.819Z,40.72
2019-05-01T10:06:57.233Z,39.80
2019-05-01T10:09:47.275Z,41.63
2019-05-01T10:12:30.701Z,38.75
2019-05-01T10:15:17.787Z,39.97
2019-05-01T10:18:04.847Z,40.42
2019-05-01T10:20:52.022Z,40.33
2019-05-01T10:23:47.064Z,38.92
2019-05-01T10:26:32.641Z,39.47
2019-05-01T10:32:46.383Z,35.92
2019-05-01T10:35:43.484Z,36.50
2019-05-01T10:38:29.596Z,34.70
2019-05-01T10:41:16.256Z,36.00
2019-05-01T10:44:02.931Z,33.25
2019-05-01T10:49:55.171Z,32.08
2019-05-01T10:52:42.292Z,30.92
2019-05-01T10:55:28.822Z,33.80
2019-05-01T10:58:17.961Z,30.40
2019-05-01T11:01:11.631Z,28.62
2019-05-01T11:03:58.218Z,27.87
2019-05-01T11:06:45.654Z,30.33
2019-05-01T11:09:35.864Z,29.50
2019-05-01T11:12:22.773Z,28.35
2019-05-01T11:15:09.527Z,31.08
2019-05-01T11:17:56.057Z,24.00
2019-05-01T11:20:42.963Z,23.73
2019-05-01T11:23:29.679Z,23.38
2019-05-01T11:26:16.475Z,23.90
2019-05-01T11:29:02.998Z,24.23
2019-05-01T11:31:55.828Z,23.15
2019-05-01T11:34:45.021Z,24.30
2019-05-01T11:37:31.712Z,21.05
2019-05-01T11:40:18.611Z,22.02
2019-05-01T11:43:05.093Z,23.65
2019-05-01T11:45:51.644Z,26.60
2019-05-01T11:48:38.629Z,25.92
2019-05-01T11:51:26.228Z,22.48
2019-05-01T11:54:13.042Z,28.27
2019-05-01T11:57:00.953Z,27.20
2019-05-01T11:59:47.889Z,25.70
2019-05-01T12:02:34.921Z,26.48
2019-05-01T12:05:21.608Z,19.10
2019-05-01T12:08:08.316Z,21.85
2019-05-01T12:10:55.149Z,21.25
2019-05-01T12:13:44.524Z,21.25
2019-05-01T12:16:49.033Z,22.15
2019-05-01T12:19:36.451Z,22.42
2019-05-01T12:22:23.677Z,22.90
2019-05-01T12:25:13.393Z,24.15
2019-05-01T12:28:01.594Z,23.38
2019-05-01T12:30:48.782Z,23.10
2019-05-01T12:33:36.250Z,23.87
2019-05-01T12:36:35.717Z,21.83
2019-05-01T12:39:18.570Z,24.50
2019-05-01T12:42:05.329Z,23.10
2019-05-01T12:44:52.014Z,22.40
2019-05-01T12:47:38.760Z,21.77
2019-05-01T12:50:26.089Z,21.48
2019-05-01T12:53:15.368Z,20.25
2019-05-01T12:56:05.016Z,20.92
2019-05-01T12:58:52.334Z,24.45
2019-05-01T13:01:38.845Z,21.08
2019-05-01T13:04:25.701Z,21.75
2019-05-01T13:07:12.367Z,22.58
2019-05-01T13:09:59.175Z,20.37
2019-05-01T13:12:45.674Z,19.45
2019-05-01T13:15:32.527Z,18.05
2019-05-01T13:18:19.597Z,20.60
2019-05-01T13:21:06.451Z,18.27
2019-05-01T13:23:56.079Z,19.90
2019-05-01T13:26:46.052Z,19.08
2019-05-01T13:29:33.324Z,16.23
2019-05-01T13:32:32.671Z,15.75
2019-05-01T13:35:19.763Z,20.58
2019-05-01T13:38:06.415Z,19.10
2019-05-01T13:40:53.298Z,19.08
2019-05-01T13:43:40.254Z,18.73
2019-05-01T13:46:28.246Z,14.40
2019-05-01T13:49:14.806Z,12.68
2019-05-01T13:52:01.665Z,13.55
2019-05-01T13:54:48.589Z,15.93
2019-05-01T13:57:36.819Z,13.05
2019-05-01T14:00:23.377Z,15.48
2019-05-01T14:03:10.075Z,14.45
2019-05-01T14:05:56.809Z,15.80
2019-05-01T14:08:43.822Z,12.77
2019-05-01T14:11:30.362Z,13.52
2019-05-01T14:14:17.336Z,14.35
2019-05-01T14:17:03.943Z,13.68
2019-05-01T14:19:59.975Z,16.67
2019-05-01T14:22:55.919Z,13.10
2019-05-01T14:26:01.452Z,14.07
2019-05-01T14:28:49.034Z,12.10
2019-05-01T14:31:36.098Z,16.85
2019-05-01T14:34:22.673Z,13.13
2019-05-01T14:37:09.484Z,11.95
2019-05-01T14:39:55.958Z,17.10
2019-05-01T14:42:42.868Z,13.48
2019-05-01T14:45:29.407Z,13.13
2019-05-01T14:48:16.005Z,10.93
2019-05-01T14:51:02.453Z,12.37
2019-05-01T14:53:49.405Z,10.43
2019-05-01T14:56:36.522Z,12.35
2019-05-01T14:59:23.125Z,10.43
2019-05-01T15:02:09.934Z,11.40
2019-05-01T15:04:56.552Z,16.25
2019-05-01T15:07:44.139Z,9.98
2019-05-01T15:10:30.271Z,11.43
2019-05-01T15:13:20.220Z,9.38
2019-05-01T15:16:24.916Z,8.43
2019-05-01T15:19:11.393Z,10.00
2019-05-01T15:22:02.631Z,10.40
2019-05-01T15:24:47.778Z,9.82
2019-05-01T15:27:34.767Z,9.90
2019-05-01T15:30:21.700Z,12.05
2019-05-01T15:33:08.634Z,10.73
2019-05-01T15:35:55.137Z,15.98
2019-05-01T15:38:41.578Z,12.50
2019-05-01T15:41:28.406Z,10.57
2019-05-01T15:44:18.795Z,10.55
2019-05-01T15:47:05.900Z,9.65
2019-05-01T15:49:52.500Z,9.93
2019-05-01T15:52:39.340Z,9.63
2019-05-01T15:55:26.173Z,13.65
2019-05-01T15:58:12.979Z,10.27
2019-05-01T16:01:00.168Z,12.98
2019-05-01T16:03:47.048Z,11.95
2019-05-01T16:06:33.898Z,10.05
2019-05-01T16:09:20.889Z,9.68
2019-05-01T16:12:16.791Z,10.02
2019-05-01T16:15:03.258Z,10.77
2019-05-01T16:17:49.804Z,12.65
2019-05-01T16:20:38.465Z,14.27
2019-05-01T16:23:25.751Z,10.32
2019-05-01T16:26:12.535Z,9.43
2019-05-01T16:29:00.497Z,11.55
2019-05-01T16:31:46.930Z,10.13
2019-05-01T16:34:33.604Z,11.18
2019-05-01T16:37:21.556Z,13.23
2019-05-01T16:40:14.869Z,12.32
2019-05-01T16:43:01.928Z,13.55
2019-05-01T16:45:48.433Z,12.90
2019-05-01T16:48:35.558Z,12.15
2019-05-01T16:51:22.476Z,12.55
2019-05-01T16:54:09.046Z,12.73
2019-05-01T16:56:57.449Z,12.80
2019-05-01T16:59:44.697Z,12.50
2019-05-01T17:02:31.357Z,15.15
2019-05-01T17:05:36.255Z,11.98
2019-05-01T17:08:36.051Z,12.80
2019-05-01T17:11:16.122Z,12.88
2019-05-01T17:14:02.709Z,13.93
2019-05-01T17:16:49.715Z,11.75
2019-05-01T17:19:39.532Z,14.70
2019-05-01T17:22:26.713Z,13.93
2019-05-01T17:25:13.540Z,13.93
2019-05-01T17:28:02.790Z,12.80
2019-05-01T17:30:46.833Z,14.05
2019-05-01T17:33:33.539Z,14.50
2019-05-01T17:36:20.778Z,16.10
2019-05-01T17:39:07.263Z,13.43
2019-05-01T17:41:57.543Z,15.65
2019-05-01T17:44:41.575Z,16.70
2019-05-01T17:47:28.075Z,18.10
2019-05-01T17:50:16.363Z,16.83
2019-05-01T17:53:01.934Z,15.50
2019-05-01T17:55:49.559Z,20.75
2019-05-01T17:58:36.676Z,21.10
2019-05-01T18:01:27.959Z,19.62
2019-05-01T18:04:19.442Z,17.60
2019-05-01T18:07:06.030Z,17.17
2019-05-01T18:09:55.716Z,15.93
2019-05-01T18:12:39.867Z,19.10
2019-05-01T18:15:26.793Z,19.52
2019-05-01T18:18:15.106Z,20.75
2019-05-01T18:21:00.917Z,19.60
2019-05-01T18:24:05.418Z,18.95
2019-05-01T18:27:10.381Z,18.40
2019-05-01T18:29:57.438Z,23.15
2019-05-01T18:32:47.503Z,22.90
2019-05-01T18:35:31.777Z,18.23
2019-05-01T18:38:22.964Z,23.52
2019-05-01T18:41:27.782Z,23.00
2019-05-01T18:44:14.622Z,22.23
2019-05-01T18:47:01.051Z,22.40
2019-05-01T18:49:48.014Z,22.10
2019-05-01T18:52:34.689Z,22.70
2019-05-01T18:55:25.831Z,23.90
2019-05-01T18:58:22.533Z,21.10
2019-05-01T19:01:10.816Z,20.58
2019-05-01T19:03:56.101Z,22.40
2019-05-01T19:06:45.050Z,22.17
2019-05-01T19:09:30.865Z,22.77
2019-05-01T19:15:25.472Z,24.37
2019-05-01T19:18:10.325Z,26.10
2019-05-01T19:21:00.104Z,25.23
2019-05-01T19:27:06.749Z,29.73
2019-05-01T19:29:53.359Z,28.20
2019-05-01T19:32:39.970Z,29.98
2019-05-01T19:35:28.989Z,27.87
2019-05-01T19:38:13.537Z,29.98
2019-05-01T19:41:03.577Z,25.85
2019-05-01T19:43:48.230Z,23.05
2019-05-01T19:46:34.674Z,26.05
2019-05-01T19:49:24.723Z,25.37
2019-05-01T19:52:07.959Z,24.73
2019-05-01T19:54:54.749Z,29.80
2019-05-01T19:57:41.668Z,24.30
2019-05-01T20:00:50.289Z,24.80
2019-05-01T20:03:38.564Z,23.77
2019-05-01T20:06:24.504Z,24.45
2019-05-01T20:09:11.014Z,23.20
2019-05-01T20:11:58.728Z,24.95
2019-05-01T20:14:45.425Z,25.60
2019-05-01T20:17:32.629Z,27.37
2019-05-01T20:20:20.077Z,25.02
2019-05-01T20:23:06.801Z,28.35
2019-05-01T20:25:55.913Z,27.02
2019-05-01T20:28:40.247Z,28.02
2019-05-01T20:31:30.698Z,26.83
2019-05-01T20:34:17.201Z,28.05
2019-05-01T20:37:02.032Z,29.75
2019-05-01T20:39:48.731Z,26.80
2019-05-01T20:42:35.538Z,27.37
2019-05-01T20:45:22.195Z,28.15
2019-05-01T20:48:10.178Z,26.58
2019-05-01T20:50:58.039Z,27.90
2019-05-01T20:53:47.429Z,25.75
2019-05-01T20:56:37.685Z,35.17
2019-05-01T20:59:24.421Z,28.50
2019-05-01T21:02:10.953Z,29.12
2019-05-01T21:05:06.707Z,29.58
2019-05-01T21:08:08.272Z,30.35
2019-05-01T21:11:01.225Z,28.62
2019-05-01T21:13:56.698Z,27.80
2019-05-01T21:16:39.664Z,30.83
2019-05-01T21:19:25.726Z,29.48
2019-05-01T21:22:11.714Z,30.08
2019-05-01T21:25:05.864Z,28.20
2019-05-01T21:27:54.165Z,34.58
2019-05-01T21:30:45.759Z,35.22
2019-05-01T21:33:27.659Z,33.63
2019-05-01T21:36:14.892Z,32.78
2019-05-01T21:39:01.449Z,34.15
2019-05-01T21:41:55.264Z,31.33
2019-05-01T21:44:43.632Z,31.48
2019-05-01T21:47:29.492Z,31.73
2019-05-01T21:50:22.828Z,35.20
2019-05-01T21:53:06.877Z,32.28
2019-05-01T21:56:06.271Z,34.38
2019-05-01T21:58:52.177Z,30.67
2019-05-01T22:01:39.015Z,35.13
2019-05-01T22:04:28.119Z,32.83
2019-05-01T22:07:13.500Z,39.72
2019-05-01T22:10:00.116Z,37.35
2019-05-01T22:12:48.995Z,32.33
2019-05-01T22:15:41.998Z,34.43
2019-05-01T22:18:28.103Z,35.53
2019-05-01T22:21:17.812Z,32.93
2019-05-01T22:27:31.834Z,33.70
2019-05-01T22:30:30.093Z,32.60
2019-05-01T22:33:16.980Z,36.97
2019-05-01T22:36:03.819Z,39.93
2019-05-01T22:38:51.021Z,37.40
2019-05-01T22:41:51.561Z,36.33
2019-05-01T22:44:45.374Z,39.63
2019-05-01T22:47:32.386Z,40.67
2019-05-01T22:50:19.446Z,39.33
2019-05-01T22:53:07.946Z,35.13
2019-05-01T22:55:57.231Z,36.83
2019-05-01T22:58:40.178Z,36.00
2019-05-01T23:01:26.682Z,41.60
2019-05-01T23:04:17.224Z,41.83
2019-05-01T23:07:00.017Z,45.10
2019-05-01T23:09:46.561Z,48.13
2019-05-01T23:13:51.298Z,44.20
2019-05-01T23:16:38.606Z,37.40
2019-05-01T23:22:31.885Z,44.80
2019-05-01T23:25:18.638Z,43.77
2019-05-01T23:28:06.112Z,51.00
2019-05-01T23:30:52.569Z,46.60
2019-05-01T23:33:40.061Z,47.67
2019-05-01T23:36:27.623Z,44.83
2019-05-01T23:39:14.983Z,45.10
2019-05-01T23:42:09.912Z,42.92
2019-05-01T23:44:57.607Z,40.65
2019-05-01T23:47:44.437Z,39.83
2019-05-01T23:50:31.937Z,45.00
2019-05-01T23:53:19.859Z,45.93
2019-05-01T23:56:07.210Z,49.03
2019-05-01T23:58:55.107Z,44.85
